sensor_id;sensor_type;location;lat;lon;timestamp;temperature;humidity
19516;DHT22;9901;47.448;7.692;2022-12-24T00:00:13;12.30;99.90
19516;DHT22;9901;47.448;7.692;2022-12-24T00:02:41;12.30;99.90
19516;DHT22;9901;47.448;7.692;2022-12-24T00:07:33;12.40;99.90
19516;DHT22;9901;47.448;7.692;2022-12-24T00:10:02;12.30;99.90
19516;DHT22;9901;47.448;7.692;2022-12-24T00:15:04;12.30;99.90
19516;DHT22;9901;47.448;7.692;2022-12-24T00:17:30;12.40;99.90
19516;DHT22;9901;47.448;7.692;2022-12-24T00:19:58;13.10;99.90
19516;DHT22;9901;47.448;7.692;2022-12-24T00:22:29;12.90;99.90
19516;DHT22;9901;47.448;7.692;2022-12-24T00:24:55;12.60;99.90
19516;DHT22;9901;47.448;7.692;2022-12-24T00:27:20;12.40;99.90
19516;DHT22;9901;47.448;7.692;2022-12-24T00:29:49;12.40;99.90
19516;DHT22;9901;47.448;7.692;2022-12-24T00:32:23;12.40;99.90
19516;DHT22;9901;47.448;7.692;2022-12-24T00:34:49;12.40;99.90
19516;DHT22;9901;47.448;7.692;2022-12-24T00:37:15;12.40;99.90
19516;DHT22;9901;47.448;7.692;2022-12-24T00:39:41;12.40;99.90
19516;DHT22;9901;47.448;7.692;2022-12-24T00:42:07;12.40;99.90
19516;DHT22;9901;47.448;7.692;2022-12-24T00:44:38;12.30;99.90
19516;DHT22;9901;47.448;7.692;2022-12-24T00:47:06;12.30;99.90
19516;DHT22;9901;47.448;7.692;2022-12-24T00:49:32;12.30;99.90
19516;DHT22;9901;47.448;7.692;2022-12-24T00:52:00;12.20;99.90
19516;DHT22;9901;47.448;7.692;2022-12-24T00:54:27;12.30;99.90
19516;DHT22;9901;47.448;7.692;2022-12-24T00:56:56;12.20;99.90
19516;DHT22;9901;47.448;7.692;2022-12-24T00:59:24;12.20;99.90
19516;DHT22;9901;47.448;7.692;2022-12-24T01:02:17;12.10;99.90
19516;DHT22;9901;47.448;7.692;2022-12-24T01:04:43;12.10;99.90
19516;DHT22;9901;47.448;7.692;2022-12-24T01:07:27;12.10;99.90
19516;DHT22;9901;47.448;7.692;2022-12-24T01:09:55;12.00;99.90
19516;DHT22;9901;47.448;7.692;2022-12-24T01:12:20;12.00;99.90
19516;DHT22;9901;47.448;7.692;2022-12-24T01:14:46;12.00;99.90
19516;DHT22;9901;47.448;7.692;2022-12-24T01:17:12;12.10;99.90
19516;DHT22;9901;47.448;7.692;2022-12-24T01:19:45;12.10;99.90
19516;DHT22;9901;47.448;7.692;2022-12-24T01:22:29;12.10;99.90
19516;DHT22;9901;47.448;7.692;2022-12-24T01:24:55;12.00;99.90
19516;DHT22;9901;47.448;7.692;2022-12-24T01:27:42;12.00;99.90
19516;DHT22;9901;47.448;7.692;2022-12-24T01:30:10;12.00;99.90
19516;DHT22;9901;47.448;7.692;2022-12-24T01:33:00;11.90;99.90
19516;DHT22;9901;47.448;7.692;2022-12-24T01:35:26;11.90;99.90
19516;DHT22;9901;47.448;7.692;2022-12-24T01:37:51;11.80;99.90
19516;DHT22;9901;47.448;7.692;2022-12-24T01:40:17;11.90;99.90
19516;DHT22;9901;47.448;7.692;2022-12-24T01:43:02;11.80;99.90
19516;DHT22;9901;47.448;7.692;2022-12-24T01:45:55;11.80;99.90
19516;DHT22;9901;47.448;7.692;2022-12-24T01:53:38;11.90;99.90
19516;DHT22;9901;47.448;7.692;2022-12-24T01:56:05;11.80;99.90
19516;DHT22;9901;47.448;7.692;2022-12-24T01:58:35;11.80;99.90
19516;DHT22;9901;47.448;7.692;2022-12-24T02:01:02;11.80;99.90
19516;DHT22;9901;47.448;7.692;2022-12-24T02:03:28;11.80;99.90
19516;DHT22;9901;47.448;7.692;2022-12-24T02:06:03;11.80;99.90
19516;DHT22;9901;47.448;7.692;2022-12-24T02:08:29;11.80;99.90
19516;DHT22;9901;47.448;7.692;2022-12-24T02:11:12;11.80;99.90
19516;DHT22;9901;47.448;7.692;2022-12-24T02:13:38;11.70;99.90
19516;DHT22;9901;47.448;7.692;2022-12-24T02:22:06;11.70;99.90
19516;DHT22;9901;47.448;7.692;2022-12-24T02:25:02;11.70;99.90
19516;DHT22;9901;47.448;7.692;2022-12-24T02:27:51;11.70;99.90
19516;DHT22;9901;47.448;7.692;2022-12-24T02:30:20;11.60;99.90
19516;DHT22;9901;47.448;7.692;2022-12-24T02:38:51;11.70;99.90
19516;DHT22;9901;47.448;7.692;2022-12-24T02:41:45;11.70;99.90
19516;DHT22;9901;47.448;7.692;2022-12-24T02:44:39;11.70;99.90
19516;DHT22;9901;47.448;7.692;2022-12-24T02:47:07;11.60;99.90
19516;DHT22;9901;47.448;7.692;2022-12-24T02:49:35;11.60;99.90
19516;DHT22;9901;47.448;7.692;2022-12-24T02:52:00;11.60;99.90
19516;DHT22;9901;47.448;7.692;2022-12-24T02:54:26;11.70;99.90
19516;DHT22;9901;47.448;7.692;2022-12-24T02:57:16;11.60;99.90
19516;DHT22;9901;47.448;7.692;2022-12-24T03:05:48;11.60;99.90
19516;DHT22;9901;47.448;7.692;2022-12-24T03:08:37;11.60;99.90
19516;DHT22;9901;47.448;7.692;2022-12-24T03:11:13;11.60;99.90
19516;DHT22;9901;47.448;7.692;2022-12-24T03:13:41;11.50;99.90
19516;DHT22;9901;47.448;7.692;2022-12-24T03:16:10;11.60;99.90
19516;DHT22;9901;47.448;7.692;2022-12-24T03:18:43;11.50;99.90
19516;DHT22;9901;47.448;7.692;2022-12-24T03:21:32;11.50;99.90
19516;DHT22;9901;47.448;7.692;2022-12-24T03:23:59;11.40;99.90
19516;DHT22;9901;47.448;7.692;2022-12-24T03:26:26;11.40;99.90
19516;DHT22;9901;47.448;7.692;2022-12-24T03:28:58;11.40;99.90
19516;DHT22;9901;47.448;7.692;2022-12-24T03:31:24;11.30;99.90
19516;DHT22;9901;47.448;7.692;2022-12-24T03:33:50;11.30;99.90
19516;DHT22;9901;47.448;7.692;2022-12-24T03:36:16;11.30;99.90
19516;DHT22;9901;47.448;7.692;2022-12-24T03:38:42;11.20;99.90
19516;DHT22;9901;47.448;7.692;2022-12-24T03:41:07;11.20;99.90
19516;DHT22;9901;47.448;7.692;2022-12-24T03:43:36;11.20;99.90
19516;DHT22;9901;47.448;7.692;2022-12-24T03:46:06;11.10;99.90
19516;DHT22;9901;47.448;7.692;2022-12-24T03:51:22;11.10;99.90
19516;DHT22;9901;47.448;7.692;2022-12-24T03:53:48;11.10;99.90
19516;DHT22;9901;47.448;7.692;2022-12-24T03:56:18;11.10;99.90
19516;DHT22;9901;47.448;7.692;2022-12-24T03:58:48;11.10;99.90
19516;DHT22;9901;47.448;7.692;2022-12-24T04:01:17;10.90;99.90
19516;DHT22;9901;47.448;7.692;2022-12-24T04:03:43;11.10;99.90
19516;DHT22;9901;47.448;7.692;2022-12-24T04:06:14;11.10;99.90
19516;DHT22;9901;47.448;7.692;2022-12-24T04:08:42;11.00;99.90
19516;DHT22;9901;47.448;7.692;2022-12-24T04:11:10;11.00;99.90
19516;DHT22;9901;47.448;7.692;2022-12-24T04:13:36;11.10;99.90
19516;DHT22;9901;47.448;7.692;2022-12-24T04:16:07;11.10;99.90
19516;DHT22;9901;47.448;7.692;2022-12-24T04:18:36;11.10;99.90
19516;DHT22;9901;47.448;7.692;2022-12-24T04:21:03;11.10;99.90
19516;DHT22;9901;47.448;7.692;2022-12-24T04:23:33;11.10;99.90
19516;DHT22;9901;47.448;7.692;2022-12-24T04:26:03;11.10;99.90
19516;DHT22;9901;47.448;7.692;2022-12-24T04:28:30;11.10;99.90
19516;DHT22;9901;47.448;7.692;2022-12-24T04:31:01;11.00;99.90
19516;DHT22;9901;47.448;7.692;2022-12-24T04:33:27;11.10;99.90
19516;DHT22;9901;47.448;7.692;2022-12-24T04:35:59;11.10;99.90
19516;DHT22;9901;47.448;7.692;2022-12-24T04:38:29;11.10;99.90
19516;DHT22;9901;47.448;7.692;2022-12-24T04:41:07;11.10;99.90
19516;DHT22;9901;47.448;7.692;2022-12-24T04:43:40;11.00;99.90
19516;DHT22;9901;47.448;7.692;2022-12-24T04:46:12;11.10;99.90
19516;DHT22;9901;47.448;7.692;2022-12-24T04:48:44;11.10;99.90
19516;DHT22;9901;47.448;7.692;2022-12-24T04:51:13;11.10;99.90
19516;DHT22;9901;47.448;7.692;2022-12-24T04:53:40;11.10;99.90
19516;DHT22;9901;47.448;7.692;2022-12-24T04:56:12;10.90;99.90
19516;DHT22;9901;47.448;7.692;2022-12-24T04:58:38;11.00;99.90
19516;DHT22;9901;47.448;7.692;2022-12-24T05:01:10;11.10;99.90
19516;DHT22;9901;47.448;7.692;2022-12-24T05:03:36;11.00;99.90
19516;DHT22;9901;47.448;7.692;2022-12-24T05:06:08;11.10;99.90
19516;DHT22;9901;47.448;7.692;2022-12-24T05:08:34;11.00;99.90
19516;DHT22;9901;47.448;7.692;2022-12-24T05:11:01;11.00;99.90
19516;DHT22;9901;47.448;7.692;2022-12-24T05:13:28;11.00;99.90
19516;DHT22;9901;47.448;7.692;2022-12-24T05:15:54;10.90;99.90
19516;DHT22;9901;47.448;7.692;2022-12-24T05:18:20;11.00;99.90
19516;DHT22;9901;47.448;7.692;2022-12-24T05:20:48;10.90;99.90
19516;DHT22;9901;47.448;7.692;2022-12-24T05:23:23;10.90;99.90
19516;DHT22;9901;47.448;7.692;2022-12-24T05:29:08;10.80;99.90
19516;DHT22;9901;47.448;7.692;2022-12-24T05:31:34;10.80;99.90
19516;DHT22;9901;47.448;7.692;2022-12-24T05:34:00;10.80;99.90
19516;DHT22;9901;47.448;7.692;2022-12-24T05:36:27;10.70;99.90
19516;DHT22;9901;47.448;7.692;2022-12-24T05:38:53;10.70;99.90
19516;DHT22;9901;47.448;7.692;2022-12-24T05:41:19;10.70;99.90
19516;DHT22;9901;47.448;7.692;2022-12-24T05:43:45;10.60;99.90
19516;DHT22;9901;47.448;7.692;2022-12-24T05:46:13;10.50;99.90
19516;DHT22;9901;47.448;7.692;2022-12-24T05:48:39;10.40;99.90
19516;DHT22;9901;47.448;7.692;2022-12-24T05:51:10;10.30;99.90
19516;DHT22;9901;47.448;7.692;2022-12-24T05:53:44;10.30;99.90
19516;DHT22;9901;47.448;7.692;2022-12-24T05:56:13;10.20;99.90
19516;DHT22;9901;47.448;7.692;2022-12-24T05:59:03;10.20;99.90
19516;DHT22;9901;47.448;7.692;2022-12-24T06:01:27;10.10;99.90
19516;DHT22;9901;47.448;7.692;2022-12-24T06:03:55;10.10;99.90
19516;DHT22;9901;47.448;7.692;2022-12-24T06:06:29;10.00;99.90
19516;DHT22;9901;47.448;7.692;2022-12-24T06:08:55;10.00;99.90
19516;DHT22;9901;47.448;7.692;2022-12-24T06:11:25;10.00;99.90
19516;DHT22;9901;47.448;7.692;2022-12-24T06:13:52;10.00;99.90
19516;DHT22;9901;47.448;7.692;2022-12-24T06:16:19;10.00;99.90
19516;DHT22;9901;47.448;7.692;2022-12-24T06:18:46;9.90;99.90
19516;DHT22;9901;47.448;7.692;2022-12-24T06:21:19;9.90;99.90
19516;DHT22;9901;47.448;7.692;2022-12-24T06:23:45;9.90;99.90
19516;DHT22;9901;47.448;7.692;2022-12-24T06:26:16;9.40;99.90
19516;DHT22;9901;47.448;7.692;2022-12-24T06:28:47;10.30;99.90
19516;DHT22;9901;47.448;7.692;2022-12-24T06:31:16;11.10;99.90
19516;DHT22;9901;47.448;7.692;2022-12-24T06:33:44;10.70;99.90
19516;DHT22;9901;47.448;7.692;2022-12-24T06:36:22;11.10;99.90
19516;DHT22;9901;47.448;7.692;2022-12-24T06:38:58;10.50;99.90
19516;DHT22;9901;47.448;7.692;2022-12-24T06:41:27;10.80;99.90
19516;DHT22;9901;47.448;7.692;2022-12-24T06:43:52;10.10;99.90
19516;DHT22;9901;47.448;7.692;2022-12-24T06:46:24;9.90;99.90
19516;DHT22;9901;47.448;7.692;2022-12-24T06:48:51;10.50;99.90
19516;DHT22;9901;47.448;7.692;2022-12-24T06:51:19;10.80;99.90
19516;DHT22;9901;47.448;7.692;2022-12-24T06:53:48;10.20;99.90
19516;DHT22;9901;47.448;7.692;2022-12-24T06:56:20;9.80;99.90
19516;DHT22;9901;47.448;7.692;2022-12-24T06:58:46;9.90;99.90
19516;DHT22;9901;47.448;7.692;2022-12-24T07:01:17;10.20;99.90
19516;DHT22;9901;47.448;7.692;2022-12-24T07:03:43;9.90;99.90
19516;DHT22;9901;47.448;7.692;2022-12-24T07:06:16;10.20;99.90
19516;DHT22;9901;47.448;7.692;2022-12-24T07:08:42;9.80;99.90
19516;DHT22;9901;47.448;7.692;2022-12-24T07:11:17;9.70;99.90
19516;DHT22;9901;47.448;7.692;2022-12-24T07:13:52;10.00;99.90
19516;DHT22;9901;47.448;7.692;2022-12-24T07:16:17;9.80;99.90
19516;DHT22;9901;47.448;7.692;2022-12-24T07:18:46;10.20;99.90
19516;DHT22;9901;47.448;7.692;2022-12-24T07:21:17;10.00;99.90
19516;DHT22;9901;47.448;7.692;2022-12-24T07:23:42;9.80;99.90
19516;DHT22;9901;47.448;7.692;2022-12-24T07:26:09;9.80;99.90
19516;DHT22;9901;47.448;7.692;2022-12-24T07:28:35;9.50;99.90
19516;DHT22;9901;47.448;7.692;2022-12-24T07:31:01;9.80;99.90
19516;DHT22;9901;47.448;7.692;2022-12-24T07:33:29;10.10;99.90
19516;DHT22;9901;47.448;7.692;2022-12-24T07:36:03;9.70;99.90
19516;DHT22;9901;47.448;7.692;2022-12-24T07:38:30;9.70;99.90
19516;DHT22;9901;47.448;7.692;2022-12-24T07:41:02;9.80;99.90
19516;DHT22;9901;47.448;7.692;2022-12-24T07:43:28;9.70;99.90
19516;DHT22;9901;47.448;7.692;2022-12-24T07:45:55;10.30;99.90
19516;DHT22;9901;47.448;7.692;2022-12-24T07:48:21;9.70;99.90
19516;DHT22;9901;47.448;7.692;2022-12-24T07:50:51;9.80;99.90
19516;DHT22;9901;47.448;7.692;2022-12-24T07:53:27;9.80;99.90
19516;DHT22;9901;47.448;7.692;2022-12-24T07:55:59;9.70;99.90
19516;DHT22;9901;47.448;7.692;2022-12-24T07:58:25;9.80;99.90
19516;DHT22;9901;47.448;7.692;2022-12-24T08:00:59;9.80;99.90
19516;DHT22;9901;47.448;7.692;2022-12-24T08:03:28;10.30;99.90
19516;DHT22;9901;47.448;7.692;2022-12-24T08:05:59;10.30;99.90
19516;DHT22;9901;47.448;7.692;2022-12-24T08:08:28;9.40;99.90
19516;DHT22;9901;47.448;7.692;2022-12-24T08:11:03;9.90;99.90
19516;DHT22;9901;47.448;7.692;2022-12-24T08:13:50;9.70;99.90
19516;DHT22;9901;47.448;7.692;2022-12-24T08:16:15;9.70;99.90
19516;DHT22;9901;47.448;7.692;2022-12-24T08:18:42;9.70;99.90
19516;DHT22;9901;47.448;7.692;2022-12-24T08:21:17;9.80;99.90
19516;DHT22;9901;47.448;7.692;2022-12-24T08:23:51;9.80;99.90
19516;DHT22;9901;47.448;7.692;2022-12-24T08:29:38;9.80;99.90
19516;DHT22;9901;47.448;7.692;2022-12-24T08:32:09;9.90;99.90
19516;DHT22;9901;47.448;7.692;2022-12-24T08:34:37;9.80;99.90
19516;DHT22;9901;47.448;7.692;2022-12-24T08:37:06;9.90;99.90
19516;DHT22;9901;47.448;7.692;2022-12-24T08:39:36;10.20;99.90
19516;DHT22;9901;47.448;7.692;2022-12-24T08:42:04;9.70;99.90
19516;DHT22;9901;47.448;7.692;2022-12-24T08:44:34;10.00;99.90
19516;DHT22;9901;47.448;7.692;2022-12-24T08:47:02;10.10;99.90
19516;DHT22;9901;47.448;7.692;2022-12-24T08:49:30;10.00;99.90
19516;DHT22;9901;47.448;7.692;2022-12-24T08:51:56;10.10;99.90
19516;DHT22;9901;47.448;7.692;2022-12-24T08:54:46;10.00;99.90
19516;DHT22;9901;47.448;7.692;2022-12-24T08:57:49;10.10;99.90
19516;DHT22;9901;47.448;7.692;2022-12-24T09:00:23;10.10;99.90
19516;DHT22;9901;47.448;7.692;2022-12-24T09:02:51;10.10;99.90
19516;DHT22;9901;47.448;7.692;2022-12-24T09:05:39;10.10;99.90
19516;DHT22;9901;47.448;7.692;2022-12-24T09:08:07;10.20;99.90
19516;DHT22;9901;47.448;7.692;2022-12-24T09:10:37;10.10;99.90
19516;DHT22;9901;47.448;7.692;2022-12-24T09:13:10;10.20;99.90
19516;DHT22;9901;47.448;7.692;2022-12-24T09:15:38;10.10;99.90
19516;DHT22;9901;47.448;7.692;2022-12-24T09:18:07;10.20;99.90
19516;DHT22;9901;47.448;7.692;2022-12-24T09:20:34;10.10;99.90
19516;DHT22;9901;47.448;7.692;2022-12-24T09:23:02;9.90;99.90
19516;DHT22;9901;47.448;7.692;2022-12-24T09:25:31;10.20;99.90
19516;DHT22;9901;47.448;7.692;2022-12-24T09:28:08;10.10;99.90
19516;DHT22;9901;47.448;7.692;2022-12-24T09:30:35;10.20;99.90
19516;DHT22;9901;47.448;7.692;2022-12-24T09:33:08;10.20;99.90
19516;DHT22;9901;47.448;7.692;2022-12-24T09:35:37;10.30;99.90
19516;DHT22;9901;47.448;7.692;2022-12-24T09:38:02;10.30;99.90
19516;DHT22;9901;47.448;7.692;2022-12-24T09:40:35;10.30;99.90
19516;DHT22;9901;47.448;7.692;2022-12-24T09:43:15;10.20;99.90
19516;DHT22;9901;47.448;7.692;2022-12-24T09:49:09;10.30;99.90
19516;DHT22;9901;47.448;7.692;2022-12-24T09:52:03;10.30;99.90
19516;DHT22;9901;47.448;7.692;2022-12-24T09:54:53;10.40;99.90
19516;DHT22;9901;47.448;7.692;2022-12-24T09:57:31;10.30;99.90
19516;DHT22;9901;47.448;7.692;2022-12-24T10:00:25;10.30;99.90
19516;DHT22;9901;47.448;7.692;2022-12-24T10:02:52;10.40;99.90
19516;DHT22;9901;47.448;7.692;2022-12-24T10:08:39;10.40;99.90
19516;DHT22;9901;47.448;7.692;2022-12-24T10:17:19;10.30;99.90
19516;DHT22;9901;47.448;7.692;2022-12-24T10:20:10;10.40;99.90
19516;DHT22;9901;47.448;7.692;2022-12-24T10:23:12;10.30;99.90
19516;DHT22;9901;47.448;7.692;2022-12-24T10:25:45;10.40;99.90
19516;DHT22;9901;47.448;7.692;2022-12-24T10:28:15;10.40;99.90
19516;DHT22;9901;47.448;7.692;2022-12-24T10:30:42;10.30;99.90
19516;DHT22;9901;47.448;7.692;2022-12-24T10:33:31;10.40;99.90
19516;DHT22;9901;47.448;7.692;2022-12-24T10:35:57;10.40;99.90
19516;DHT22;9901;47.448;7.692;2022-12-24T10:38:23;10.40;99.90
19516;DHT22;9901;47.448;7.692;2022-12-24T10:40:53;10.40;99.90
19516;DHT22;9901;47.448;7.692;2022-12-24T10:43:22;10.50;99.90
19516;DHT22;9901;47.448;7.692;2022-12-24T10:45:56;10.40;99.90
19516;DHT22;9901;47.448;7.692;2022-12-24T10:48:39;10.40;99.90
19516;DHT22;9901;47.448;7.692;2022-12-24T10:54:18;10.60;99.90
19516;DHT22;9901;47.448;7.692;2022-12-24T10:56:50;10.60;99.90
19516;DHT22;9901;47.448;7.692;2022-12-24T10:59:24;10.60;99.90
19516;DHT22;9901;47.448;7.692;2022-12-24T11:01:50;10.60;99.90
19516;DHT22;9901;47.448;7.692;2022-12-24T11:04:31;10.60;99.90
19516;DHT22;9901;47.448;7.692;2022-12-24T11:06:58;10.70;99.90
19516;DHT22;9901;47.448;7.692;2022-12-24T11:09:26;10.70;99.90
19516;DHT22;9901;47.448;7.692;2022-12-24T11:12:18;10.70;99.90
19516;DHT22;9901;47.448;7.692;2022-12-24T11:14:41;10.70;99.90
19516;DHT22;9901;47.448;7.692;2022-12-24T11:17:18;10.60;99.90
19516;DHT22;9901;47.448;7.692;2022-12-24T11:19:48;10.60;99.90
19516;DHT22;9901;47.448;7.692;2022-12-24T11:22:22;10.70;99.90
19516;DHT22;9901;47.448;7.692;2022-12-24T11:27:43;10.60;99.90
19516;DHT22;9901;47.448;7.692;2022-12-24T11:30:28;10.60;99.90
19516;DHT22;9901;47.448;7.692;2022-12-24T11:35:28;10.50;99.90
19516;DHT22;9901;47.448;7.692;2022-12-24T11:40:35;10.60;99.90
19516;DHT22;9901;47.448;7.692;2022-12-24T11:43:02;10.60;99.90
19516;DHT22;9901;47.448;7.692;2022-12-24T11:45:29;10.60;99.90
19516;DHT22;9901;47.448;7.692;2022-12-24T11:47:56;10.60;99.90
19516;DHT22;9901;47.448;7.692;2022-12-24T11:55:45;10.50;99.90
19516;DHT22;9901;47.448;7.692;2022-12-24T12:01:17;10.50;99.90
19516;DHT22;9901;47.448;7.692;2022-12-24T12:06:54;10.40;99.90
19516;DHT22;9901;47.448;7.692;2022-12-24T12:09:39;10.40;99.90
19516;DHT22;9901;47.448;7.692;2022-12-24T12:12:41;10.40;99.90
19516;DHT22;9901;47.448;7.692;2022-12-24T12:15:18;10.40;99.90
19516;DHT22;9901;47.448;7.692;2022-12-24T12:18:09;10.40;99.90
19516;DHT22;9901;47.448;7.692;2022-12-24T12:20:47;10.40;99.90
19516;DHT22;9901;47.448;7.692;2022-12-24T12:23:35;10.30;99.90
19516;DHT22;9901;47.448;7.692;2022-12-24T12:26:17;10.20;99.90
19516;DHT22;9901;47.448;7.692;2022-12-24T12:28:57;10.30;99.90
19516;DHT22;9901;47.448;7.692;2022-12-24T12:31:36;10.30;99.90
19516;DHT22;9901;47.448;7.692;2022-12-24T12:34:27;10.30;99.90
19516;DHT22;9901;47.448;7.692;2022-12-24T12:37:00;10.30;99.90
19516;DHT22;9901;47.448;7.692;2022-12-24T12:39:36;10.20;99.90
19516;DHT22;9901;47.448;7.692;2022-12-24T12:45:28;10.20;99.90
19516;DHT22;9901;47.448;7.692;2022-12-24T12:48:22;10.20;99.90
19516;DHT22;9901;47.448;7.692;2022-12-24T12:51:07;10.10;99.90
19516;DHT22;9901;47.448;7.692;2022-12-24T12:56:53;10.20;99.90
19516;DHT22;9901;47.448;7.692;2022-12-24T12:59:43;10.20;99.90
19516;DHT22;9901;47.448;7.692;2022-12-24T13:16:59;10.20;99.90
19516;DHT22;9901;47.448;7.692;2022-12-24T13:19:57;10.20;99.90
19516;DHT22;9901;47.448;7.692;2022-12-24T13:22:25;10.10;99.90
19516;DHT22;9901;47.448;7.692;2022-12-24T13:24:53;10.20;99.90
19516;DHT22;9901;47.448;7.692;2022-12-24T13:27:23;10.00;99.90
19516;DHT22;9901;47.448;7.692;2022-12-24T13:29:55;10.10;99.90
19516;DHT22;9901;47.448;7.692;2022-12-24T13:35:25;10.10;99.90
19516;DHT22;9901;47.448;7.692;2022-12-24T13:37:50;10.10;99.90
19516;DHT22;9901;47.448;7.692;2022-12-24T13:40:25;10.10;99.90
19516;DHT22;9901;47.448;7.692;2022-12-24T13:47:57;10.20;99.90
19516;DHT22;9901;47.448;7.692;2022-12-24T13:50:50;10.10;99.90
19516;DHT22;9901;47.448;7.692;2022-12-24T13:55:55;10.20;99.90
19516;DHT22;9901;47.448;7.692;2022-12-24T13:58:23;10.20;99.90
19516;DHT22;9901;47.448;7.692;2022-12-24T14:00:54;10.20;99.90
19516;DHT22;9901;47.448;7.692;2022-12-24T14:06:00;10.20;99.90
19516;DHT22;9901;47.448;7.692;2022-12-24T14:08:41;10.20;99.90
19516;DHT22;9901;47.448;7.692;2022-12-24T14:16:29;10.10;99.90
19516;DHT22;9901;47.448;7.692;2022-12-24T14:20:14;10.10;99.90
19516;DHT22;9901;47.448;7.692;2022-12-24T14:27:43;10.00;99.90
19516;DHT22;9901;47.448;7.692;2022-12-24T14:30:20;10.00;99.90
19516;DHT22;9901;47.448;7.692;2022-12-24T14:32:48;9.90;99.90
19516;DHT22;9901;47.448;7.692;2022-12-24T14:35:16;9.80;99.90
19516;DHT22;9901;47.448;7.692;2022-12-24T14:38:12;9.80;99.90
19516;DHT22;9901;47.448;7.692;2022-12-24T14:41:03;9.80;99.90
19516;DHT22;9901;47.448;7.692;2022-12-24T14:46:56;9.80;99.90
19516;DHT22;9901;47.448;7.692;2022-12-24T14:52:28;9.80;99.90
19516;DHT22;9901;47.448;7.692;2022-12-24T14:54:54;9.80;99.90
19516;DHT22;9901;47.448;7.692;2022-12-24T14:57:24;9.80;99.90
19516;DHT22;9901;47.448;7.692;2022-12-24T14:59:53;9.80;99.90
19516;DHT22;9901;47.448;7.692;2022-12-24T15:05:27;9.80;99.90
19516;DHT22;9901;47.448;7.692;2022-12-24T15:08:30;9.80;99.90
19516;DHT22;9901;47.448;7.692;2022-12-24T15:10:58;9.80;99.90
19516;DHT22;9901;47.448;7.692;2022-12-24T15:16:00;9.70;99.90
19516;DHT22;9901;47.448;7.692;2022-12-24T15:18:31;9.70;99.90
19516;DHT22;9901;47.448;7.692;2022-12-24T15:21:02;9.70;99.90
19516;DHT22;9901;47.448;7.692;2022-12-24T15:23:45;9.70;99.90
19516;DHT22;9901;47.448;7.692;2022-12-24T15:26:26;9.70;99.90
19516;DHT22;9901;47.448;7.692;2022-12-24T15:28:54;9.70;99.90
19516;DHT22;9901;47.448;7.692;2022-12-24T15:31:24;9.60;99.90
19516;DHT22;9901;47.448;7.692;2022-12-24T15:34:01;9.70;99.90
19516;DHT22;9901;47.448;7.692;2022-12-24T15:38:56;9.60;99.90
19516;DHT22;9901;47.448;7.692;2022-12-24T15:41:26;9.60;99.90
19516;DHT22;9901;47.448;7.692;2022-12-24T15:44:00;9.60;99.90
19516;DHT22;9901;47.448;7.692;2022-12-24T15:46:30;9.60;99.90
19516;DHT22;9901;47.448;7.692;2022-12-24T15:49:00;9.60;99.90
19516;DHT22;9901;47.448;7.692;2022-12-24T15:51:32;9.60;99.90
19516;DHT22;9901;47.448;7.692;2022-12-24T15:54:06;9.60;99.90
19516;DHT22;9901;47.448;7.692;2022-12-24T15:56:37;9.70;99.90
19516;DHT22;9901;47.448;7.692;2022-12-24T15:59:29;9.50;99.90
19516;DHT22;9901;47.448;7.692;2022-12-24T16:02:16;9.50;99.90
19516;DHT22;9901;47.448;7.692;2022-12-24T16:04:41;9.00;99.90
19516;DHT22;9901;47.448;7.692;2022-12-24T16:12:02;9.40;99.90
19516;DHT22;9901;47.448;7.692;2022-12-24T16:16:56;9.40;99.90
19516;DHT22;9901;47.448;7.692;2022-12-24T16:19:32;9.40;99.90
19516;DHT22;9901;47.448;7.692;2022-12-24T16:24:49;9.40;99.90
19516;DHT22;9901;47.448;7.692;2022-12-24T16:27:17;9.30;99.90
19516;DHT22;9901;47.448;7.692;2022-12-24T16:29:45;9.20;99.90
19516;DHT22;9901;47.448;7.692;2022-12-24T16:32:27;9.30;99.90
19516;DHT22;9901;47.448;7.692;2022-12-24T16:35:01;9.30;99.90
19516;DHT22;9901;47.448;7.692;2022-12-24T16:39:54;9.30;99.90
19516;DHT22;9901;47.448;7.692;2022-12-24T16:42:19;9.30;99.90
19516;DHT22;9901;47.448;7.692;2022-12-24T16:45:04;9.30;99.90
19516;DHT22;9901;47.448;7.692;2022-12-24T16:47:31;9.30;99.90
19516;DHT22;9901;47.448;7.692;2022-12-24T16:50:00;9.30;99.90
19516;DHT22;9901;47.448;7.692;2022-12-24T16:52:28;9.30;99.90
19516;DHT22;9901;47.448;7.692;2022-12-24T16:54:55;9.40;99.90
19516;DHT22;9901;47.448;7.692;2022-12-24T16:57:21;9.30;99.90
19516;DHT22;9901;47.448;7.692;2022-12-24T16:59:51;9.30;99.90
19516;DHT22;9901;47.448;7.692;2022-12-24T17:02:19;9.20;99.90
19516;DHT22;9901;47.448;7.692;2022-12-24T17:04:45;9.20;99.90
19516;DHT22;9901;47.448;7.692;2022-12-24T17:07:13;9.20;99.90
19516;DHT22;9901;47.448;7.692;2022-12-24T17:09:39;9.20;99.90
19516;DHT22;9901;47.448;7.692;2022-12-24T17:12:05;9.30;99.90
19516;DHT22;9901;47.448;7.692;2022-12-24T17:30:29;9.20;99.90
19516;DHT22;9901;47.448;7.692;2022-12-24T17:35:21;9.20;99.90
19516;DHT22;9901;47.448;7.692;2022-12-24T17:37:47;9.40;99.90
19516;DHT22;9901;47.448;7.692;2022-12-24T17:40:12;9.20;99.90
19516;DHT22;9901;47.448;7.692;2022-12-24T17:42:38;9.20;99.90
19516;DHT22;9901;47.448;7.692;2022-12-24T17:45:04;9.20;99.90
19516;DHT22;9901;47.448;7.692;2022-12-24T17:47:29;9.20;99.90
19516;DHT22;9901;47.448;7.692;2022-12-24T17:52:21;9.20;99.90
19516;DHT22;9901;47.448;7.692;2022-12-24T17:54:47;9.20;99.90
19516;DHT22;9901;47.448;7.692;2022-12-24T17:57:12;9.10;99.90
19516;DHT22;9901;47.448;7.692;2022-12-24T17:59:38;9.20;99.90
19516;DHT22;9901;47.448;7.692;2022-12-24T18:05:14;9.20;99.90
19516;DHT22;9901;47.448;7.692;2022-12-24T18:07:39;9.10;99.90
19516;DHT22;9901;47.448;7.692;2022-12-24T18:10:05;9.10;99.90
19516;DHT22;9901;47.448;7.692;2022-12-24T18:12:32;9.10;99.90
